Terminal Aerodrome Forecast
Issued by NWS

Home | Current Version | Previous Version | Text Only | Print | Product List | Glossary On
Versions: 1 2 3 4 5 6 7 8 9 10 11 12 13 14 15 16 17 18 19 20 21 22 23 24 25 26
000
FTUS45 KSLC 232334
TAFBCE
TAF
KBCE 232334Z 2400/2424 16010KT P6SM SCT080 SCT120
     FM240200 24006KT P6SM FEW090 SCT130
     FM241700 16009G18KT P6SM SCT080 SCT120
     FM241900 20012G22KT P6SM SCT080 BKN120=

USA.gov is the U.S. government's official web portal to all federal, state and local government web resources and services.